N745JS KSFO-KSNA
Flight info
| Callsign | N745JS |
|---|---|
| Flight time | N/A |
| Altitude | 33000 |
| Route | WESLA5 YYUNG TILLT RUKKI1 |
| Aircraft | C525/L-SDFGRWY/SB1 |
Departure
| Time | 2026-05-04 17:37 |
|---|---|
| Airport | San Francisco International Airport (KSFO) |
Arrival
| Time | N/A |
|---|---|
| Airport | John Wayne Orange County International Airport (KSNA) |
| Time | Latitude | Longitude | Altitude | Speed | Heading |
|---|---|---|---|---|---|
| 2026-05-04 17:21 | 37.62708 | -122.38314 | 16 ft | 0 kts | 146° |
| 2026-05-04 17:29 | 37.62706 | -122.38312 | 16 ft | 1 kts | 143° |
| 2026-05-04 17:30 | 37.62613 | -122.38304 | 18 ft | 8 kts | 159° |
| 2026-05-04 17:31 | 37.62521 | -122.38127 | 20 ft | 12 kts | 117° |
| 2026-05-04 17:31 | 37.62413 | -122.37869 | 19 ft | 13 kts | 117° |
| 2026-05-04 17:32 | 37.62301 | -122.37606 | 17 ft | 19 kts | 118° |
| 2026-05-04 17:33 | 37.62070 | -122.37060 | 8 ft | 22 kts | 117° |
| 2026-05-04 17:33 | 37.62001 | -122.36893 | 7 ft | 20 kts | 118° |
| 2026-05-04 17:34 | 37.61833 | -122.36485 | 7 ft | 14 kts | 121° |
| 2026-05-04 17:34 | 37.61786 | -122.36377 | 7 ft | 13 kts | 117° |
| 2026-05-04 17:35 | 37.61638 | -122.36022 | 4 ft | 18 kts | 118° |
| 2026-05-04 17:35 | 37.61503 | -122.35709 | 4 ft | 17 kts | 131° |
| 2026-05-04 17:35 | 37.61421 | -122.35692 | 4 ft | 11 kts | 210° |
| 2026-05-04 17:36 | 37.61380 | -122.35764 | 4 ft | 9 kts | 271° |
| 2026-05-04 17:36 | 37.61406 | -122.35836 | 4 ft | 9 kts | 298° |
| 2026-05-04 17:36 | 37.61455 | -122.35957 | 4 ft | 28 kts | 298° |
| 2026-05-04 17:36 | 37.61629 | -122.36379 | 7 ft | 84 kts | 300° |
| 2026-05-04 17:37 | 37.61982 | -122.37212 | 129 ft | 120 kts | 296° |
| 2026-05-04 17:37 | 37.62396 | -122.38214 | 466 ft | 138 kts | 298° |
| 2026-05-04 17:37 | 37.62866 | -122.39293 | 967 ft | 145 kts | 297° |
| 2026-05-04 17:37 | 37.63348 | -122.40456 | 1556 ft | 149 kts | 296° |
| 2026-05-04 17:38 | 37.63860 | -122.41703 | 1884 ft | 175 kts | 296° |
| 2026-05-04 17:38 | 37.64445 | -122.43132 | 2369 ft | 191 kts | 297° |
| 2026-05-04 17:38 | 37.65052 | -122.44611 | 3053 ft | 194 kts | 297° |
| 2026-05-04 17:38 | 37.65574 | -122.45886 | 3618 ft | 197 kts | 297° |